createdAt,value
2019-03-08T00:02:17.219Z,62.58
2019-03-08T00:05:12.375Z,49.53
2019-03-08T00:08:07.501Z,194.97
2019-03-08T00:11:02.336Z,100.85
2019-03-08T00:13:57.664Z,92.22
2019-03-08T00:16:52.859Z,60.20
2019-03-08T00:19:47.803Z,67.20
2019-03-08T00:22:42.654Z,75.75
2019-03-08T00:25:37.820Z,63.90
2019-03-08T00:28:32.858Z,58.60
2019-03-08T00:31:27.802Z,66.17
2019-03-08T00:34:23.546Z,53.30
2019-03-08T00:37:18.757Z,46.58
2019-03-08T00:40:14.173Z,53.42
2019-03-08T00:43:09.404Z,56.00
2019-03-08T00:46:04.311Z,54.35
2019-03-08T00:48:59.640Z,52.73
2019-03-08T00:51:54.787Z,59.35
2019-03-08T00:54:49.864Z,72.80
2019-03-08T00:57:44.924Z,71.37
2019-03-08T01:00:40.400Z,70.75
2019-03-08T01:03:35.601Z,56.13
2019-03-08T01:06:30.681Z,61.00
2019-03-08T01:09:26.120Z,65.95
2019-03-08T01:12:21.302Z,59.77
2019-03-08T01:15:18.249Z,63.17
2019-03-08T01:18:13.049Z,62.83
2019-03-08T01:21:08.355Z,60.83
2019-03-08T01:24:03.680Z,59.75
2019-03-08T01:26:58.970Z,70.45
2019-03-08T01:29:53.868Z,73.75
2019-03-08T01:32:48.694Z,76.07
2019-03-08T01:35:43.188Z,65.75
2019-03-08T01:38:37.927Z,75.72
2019-03-08T01:41:32.945Z,79.62
2019-03-08T01:44:28.111Z,82.27
2019-03-08T01:47:23.175Z,85.12
2019-03-08T01:50:18.575Z,87.00
2019-03-08T01:53:13.668Z,71.00
2019-03-08T01:56:08.687Z,84.42
2019-03-08T01:59:03.357Z,75.67
2019-03-08T02:01:58.463Z,77.12
2019-03-08T02:04:53.713Z,75.60
2019-03-08T02:07:48.946Z,80.90
2019-03-08T02:10:44.357Z,90.12
2019-03-08T02:13:39.280Z,84.70
2019-03-08T02:16:34.139Z,78.17
2019-03-08T02:19:29.138Z,70.47
2019-03-08T02:22:24.057Z,63.05
2019-03-08T02:25:19.133Z,80.28
2019-03-08T02:28:13.927Z,60.65
2019-03-08T02:31:09.007Z,67.70
2019-03-08T02:34:04.079Z,67.95
2019-03-08T02:36:59.015Z,72.20
2019-03-08T02:39:53.731Z,71.85
2019-03-08T02:42:49.675Z,67.75
2019-03-08T02:45:45.039Z,76.35
2019-03-08T02:48:39.993Z,75.87
2019-03-08T02:51:35.358Z,69.05
2019-03-08T02:54:29.975Z,69.65
2019-03-08T02:57:25.187Z,68.78
2019-03-08T03:00:20.979Z,64.27
2019-03-08T03:03:16.540Z,79.77
2019-03-08T03:06:11.439Z,61.35
2019-03-08T03:09:06.720Z,55.35
2019-03-08T03:12:02.878Z,55.10
2019-03-08T03:14:58.057Z,59.75
2019-03-08T03:17:52.963Z,63.92
2019-03-08T03:20:48.152Z,64.58
2019-03-08T03:23:42.899Z,46.73
2019-03-08T03:26:38.338Z,46.40
2019-03-08T03:29:33.546Z,46.33
2019-03-08T03:32:28.314Z,43.78
2019-03-08T03:35:23.026Z,46.35
2019-03-08T03:38:17.817Z,38.60
2019-03-08T03:41:12.547Z,39.30
2019-03-08T03:44:07.681Z,44.33
2019-03-08T03:47:03.529Z,38.17
2019-03-08T03:49:58.819Z,49.80
2019-03-08T03:52:53.885Z,60.95
2019-03-08T03:55:49.061Z,76.15
2019-03-08T03:58:44.004Z,42.62
2019-03-08T04:01:45.980Z,52.90
2019-03-08T04:04:41.162Z,53.73
2019-03-08T04:07:35.906Z,50.05
2019-03-08T04:10:31.503Z,60.45
2019-03-08T04:13:27.752Z,46.63
2019-03-08T04:16:23.611Z,56.58
2019-03-08T04:19:18.876Z,45.83
2019-03-08T04:22:13.919Z,43.60
2019-03-08T04:25:10.399Z,45.00
2019-03-08T04:28:11.492Z,52.40
2019-03-08T04:31:06.551Z,53.25
2019-03-08T04:34:03.972Z,61.92
2019-03-08T04:36:57.663Z,46.77
2019-03-08T04:39:54.550Z,47.90
2019-03-08T04:42:50.877Z,37.23
2019-03-08T04:45:46.041Z,47.10
2019-03-08T04:48:43.071Z,38.65
2019-03-08T04:51:38.505Z,42.40
2019-03-08T04:54:33.795Z,34.45
2019-03-08T04:57:29.242Z,52.55
2019-03-08T05:00:25.359Z,40.92
2019-03-08T05:03:22.190Z,38.30
2019-03-08T05:06:18.110Z,37.80
2019-03-08T05:09:14.175Z,36.88
2019-03-08T05:24:24.065Z,38.05
2019-03-08T05:41:53.284Z,40.78
2019-03-08T05:44:49.204Z,39.08
2019-03-08T05:47:46.061Z,46.37
2019-03-08T05:50:55.550Z,46.08
2019-03-08T05:53:53.247Z,44.42
2019-03-08T05:56:52.618Z,54.83
2019-03-08T05:59:48.037Z,45.38
2019-03-08T06:02:47.148Z,53.48
2019-03-08T06:05:44.063Z,45.05
2019-03-08T06:08:40.596Z,47.67
2019-03-08T06:11:37.119Z,39.83
2019-03-08T06:14:34.000Z,39.10
2019-03-08T06:17:39.386Z,44.30
2019-03-08T06:20:35.680Z,41.58
2019-03-08T06:23:47.070Z,40.80
2019-03-08T06:27:03.439Z,44.80
2019-03-08T06:30:52.252Z,44.55
2019-03-08T06:37:36.035Z,44.98
2019-03-08T06:40:35.011Z,49.83
2019-03-08T06:43:30.966Z,44.75
2019-03-08T06:46:26.608Z,46.05
2019-03-08T06:49:23.339Z,31.70
2019-03-08T06:52:19.487Z,37.88
2019-03-08T06:55:18.828Z,32.63
2019-03-08T06:58:15.975Z,56.88
2019-03-08T07:01:14.047Z,36.75
2019-03-08T07:04:09.811Z,40.95
2019-03-08T07:07:33.612Z,41.68
2019-03-08T07:10:30.609Z,48.95
2019-03-08T07:13:28.091Z,40.43
2019-03-08T07:16:23.679Z,46.73
2019-03-08T07:19:20.578Z,50.43
2019-03-08T07:22:34.244Z,54.85
2019-03-08T07:26:02.672Z,74.58
2019-03-08T07:29:20.120Z,41.55
2019-03-08T07:32:33.687Z,47.45
2019-03-08T07:36:00.340Z,49.10
2019-03-08T07:39:16.214Z,47.10
2019-03-08T07:42:33.826Z,37.00
2019-03-08T07:45:47.327Z,42.43
2019-03-08T07:49:03.641Z,36.03
2019-03-08T07:52:14.280Z,41.15
2019-03-08T07:55:36.816Z,41.30
2019-03-08T07:58:51.817Z,39.90
2019-03-08T08:02:01.152Z,43.28
2019-03-08T08:05:25.265Z,41.83
2019-03-08T08:08:34.177Z,36.53
2019-03-08T08:11:52.528Z,42.35
2019-03-08T08:15:33.916Z,45.63
2019-03-08T08:19:42.078Z,43.73
2019-03-08T08:26:36.671Z,41.90
2019-03-08T08:29:49.825Z,40.45
2019-03-08T08:33:04.050Z,38.50
2019-03-08T08:36:19.182Z,52.98
2019-03-08T08:39:41.178Z,41.88
2019-03-08T08:42:44.361Z,40.92
2019-03-08T08:45:54.075Z,43.28
2019-03-08T08:48:58.624Z,58.38
2019-03-08T08:52:14.883Z,43.65
2019-03-08T08:55:32.601Z,43.42
2019-03-08T08:59:04.174Z,54.53
2019-03-08T09:02:17.001Z,48.20
2019-03-08T09:05:24.171Z,36.23
2019-03-08T09:08:52.352Z,63.58
2019-03-08T09:12:03.766Z,48.83
2019-03-08T09:15:15.424Z,44.65
2019-03-08T09:18:22.243Z,48.50
2019-03-08T09:21:32.777Z,54.30
2019-03-08T09:24:40.920Z,52.30
2019-03-08T09:27:50.030Z,54.23
2019-03-08T09:31:18.676Z,60.63
2019-03-08T09:34:24.589Z,61.15
2019-03-08T09:37:47.359Z,51.65
2019-03-08T09:41:10.623Z,51.42
2019-03-08T09:44:42.922Z,64.15
2019-03-08T09:51:36.595Z,49.13
2019-03-08T09:55:01.861Z,65.30
2019-03-08T09:58:27.107Z,57.95
2019-03-08T10:01:42.590Z,53.73
2019-03-08T10:05:12.403Z,61.68
2019-03-08T10:08:25.473Z,60.08
2019-03-08T10:11:55.182Z,36.33
2019-03-08T10:15:15.856Z,44.08
2019-03-08T10:18:31.112Z,49.48
2019-03-08T10:21:50.323Z,52.80
2019-03-08T10:25:29.400Z,40.52
2019-03-08T10:28:45.623Z,41.33
2019-03-08T10:31:59.793Z,43.05
2019-03-08T10:35:11.070Z,47.13
2019-03-08T10:38:25.865Z,36.68
2019-03-08T10:41:50.586Z,37.83
2019-03-08T10:44:57.248Z,54.58
2019-03-08T10:48:26.041Z,33.15
2019-03-08T10:51:33.635Z,36.63
2019-03-08T11:17:28.590Z,33.50
2019-03-08T11:20:46.501Z,33.75
2019-03-08T11:23:52.632Z,32.60
2019-03-08T11:27:06.708Z,42.83
2019-03-08T11:30:21.752Z,41.18
2019-03-08T11:33:44.516Z,30.35
2019-03-08T11:37:09.487Z,42.05
2019-03-08T11:40:09.431Z,30.52
2019-03-08T11:43:22.874Z,37.50
2019-03-08T11:46:36.247Z,45.70
2019-03-08T11:49:53.647Z,52.78
2019-03-08T11:52:57.174Z,34.48
2019-03-08T11:56:01.621Z,43.85
2019-03-08T11:59:18.719Z,42.33
2019-03-08T12:02:51.324Z,45.50
2019-03-08T12:05:57.053Z,47.73
2019-03-08T12:09:09.636Z,45.65
2019-03-08T12:12:21.600Z,33.58
2019-03-08T12:15:36.619Z,37.48
2019-03-08T12:18:49.795Z,46.00
2019-03-08T12:22:13.339Z,39.45
2019-03-08T12:25:23.907Z,54.23
2019-03-08T12:28:49.089Z,34.23
2019-03-08T12:32:08.486Z,35.70
2019-03-08T12:35:48.873Z,45.65
2019-03-08T12:39:01.026Z,45.73
2019-03-08T12:42:38.722Z,47.85
2019-03-08T12:46:02.121Z,48.00
2019-03-08T12:49:32.938Z,48.58
2019-03-08T12:52:39.267Z,47.67
2019-03-08T12:56:49.285Z,55.30
2019-03-08T13:00:45.388Z,62.88
2019-03-08T13:04:07.850Z,64.85
2019-03-08T13:07:20.112Z,60.12
2019-03-08T13:10:16.845Z,69.05
2019-03-08T13:13:13.974Z,63.05
2019-03-08T13:16:09.526Z,87.10
2019-03-08T13:19:13.294Z,71.02
2019-03-08T13:22:09.486Z,94.45
2019-03-08T13:25:05.187Z,112.10
2019-03-08T13:28:01.610Z,87.22
2019-03-08T13:30:58.106Z,84.80
2019-03-08T13:33:53.490Z,90.42
2019-03-08T13:36:48.526Z,83.50
2019-03-08T13:39:43.721Z,83.60
2019-03-08T13:42:39.432Z,74.40
2019-03-08T13:45:35.502Z,77.80
2019-03-08T13:48:30.310Z,102.82
2019-03-08T13:51:25.279Z,111.55
2019-03-08T13:54:20.624Z,144.85
2019-03-08T13:57:16.485Z,141.32
2019-03-08T14:00:13.474Z,127.80
2019-03-08T14:03:26.803Z,117.15
2019-03-08T14:06:22.282Z,135.00
2019-03-08T14:09:17.984Z,146.62
2019-03-08T14:12:13.960Z,154.05
2019-03-08T14:15:09.713Z,204.25
2019-03-08T14:18:05.878Z,174.75
2019-03-08T14:21:01.947Z,160.90
2019-03-08T14:23:57.239Z,166.05
2019-03-08T14:26:52.339Z,119.17
2019-03-08T14:29:48.021Z,144.45
2019-03-08T14:32:43.045Z,139.30
2019-03-08T14:35:38.480Z,130.50
2019-03-08T14:38:39.608Z,130.10
2019-03-08T14:42:05.337Z,118.97
2019-03-08T14:45:09.327Z,134.50
2019-03-08T14:48:05.887Z,137.60
2019-03-08T14:51:01.653Z,148.53
2019-03-08T14:53:57.066Z,135.05
2019-03-08T14:56:52.980Z,157.20
2019-03-08T14:59:53.138Z,159.65
2019-03-08T15:02:47.132Z,143.20
2019-03-08T15:05:41.659Z,155.55
2019-03-08T15:08:38.058Z,126.50
2019-03-08T15:11:34.688Z,117.80
2019-03-08T15:14:33.509Z,142.13
2019-03-08T15:17:26.720Z,156.47
2019-03-08T15:20:22.758Z,157.82
2019-03-08T15:23:18.224Z,149.50
2019-03-08T15:26:15.296Z,129.47
2019-03-08T15:29:10.682Z,133.65
2019-03-08T15:32:05.627Z,134.57
2019-03-08T15:35:00.541Z,219.20
2019-03-08T15:37:55.685Z,186.65
2019-03-08T15:40:50.649Z,135.22
2019-03-08T15:43:47.011Z,123.10
2019-03-08T15:46:41.435Z,133.82
2019-03-08T15:49:36.811Z,96.60
2019-03-08T15:52:31.725Z,101.70
2019-03-08T15:55:28.548Z,123.87
2019-03-08T15:58:23.861Z,88.97
2019-03-08T16:01:19.164Z,104.87
2019-03-08T16:04:14.325Z,109.87
2019-03-08T16:07:09.864Z,103.80
2019-03-08T16:10:05.093Z,96.50
2019-03-08T16:13:00.000Z,86.92
2019-03-08T16:15:54.873Z,75.47
2019-03-08T16:18:50.470Z,74.12
2019-03-08T16:21:50.567Z,71.57
2019-03-08T16:24:42.579Z,83.92
2019-03-08T16:27:38.002Z,81.22
2019-03-08T16:30:37.346Z,83.52
2019-03-08T16:33:44.659Z,94.28
2019-03-08T16:36:57.255Z,82.40
2019-03-08T16:40:08.844Z,83.37
2019-03-08T16:43:24.867Z,89.32
2019-03-08T16:46:35.889Z,80.57
2019-03-08T16:49:53.191Z,121.57
2019-03-08T16:53:09.712Z,84.32
2019-03-08T16:56:20.993Z,88.40
2019-03-08T16:59:26.126Z,92.47
2019-03-08T17:02:35.773Z,115.47
2019-03-08T17:05:49.382Z,120.05
2019-03-08T17:09:02.615Z,115.17
2019-03-08T17:12:24.291Z,102.65
2019-03-08T17:15:57.021Z,107.63
2019-03-08T17:19:13.074Z,100.87
2019-03-08T17:22:33.279Z,95.97
2019-03-08T17:26:03.323Z,84.20
2019-03-08T17:29:29.936Z,108.83
2019-03-08T17:32:49.834Z,76.77
2019-03-08T17:36:01.580Z,78.70
2019-03-08T17:39:30.037Z,81.05
2019-03-08T17:42:39.415Z,87.33
2019-03-08T17:45:44.133Z,77.90
2019-03-08T17:48:56.954Z,75.20
2019-03-08T17:52:12.363Z,85.32
2019-03-08T17:55:23.832Z,91.72
2019-03-08T17:58:36.470Z,89.62
2019-03-08T18:01:48.220Z,95.05
2019-03-08T18:04:53.101Z,87.08
2019-03-08T18:08:06.037Z,78.22
2019-03-08T18:11:12.554Z,88.92
2019-03-08T18:14:25.524Z,84.42
2019-03-08T18:17:31.668Z,90.25
2019-03-08T18:20:47.578Z,86.12
2019-03-08T18:24:12.649Z,77.58
2019-03-08T18:27:20.727Z,65.05
2019-03-08T18:30:32.669Z,73.87
2019-03-08T18:33:57.378Z,72.00
2019-03-08T18:37:08.344Z,66.15
2019-03-08T18:40:19.977Z,58.30
2019-03-08T18:43:27.521Z,75.17
2019-03-08T18:46:41.181Z,81.12
2019-03-08T18:49:47.666Z,65.55
2019-03-08T18:53:11.352Z,62.65
2019-03-08T18:56:32.702Z,64.03
2019-03-08T18:59:42.451Z,72.47
2019-03-08T19:02:55.219Z,64.27
2019-03-08T19:06:06.503Z,62.95
2019-03-08T19:09:17.052Z,60.52
2019-03-08T19:12:29.596Z,73.22
2019-03-08T19:15:45.547Z,53.70
2019-03-08T19:18:48.083Z,60.17
2019-03-08T19:22:09.889Z,70.52
2019-03-08T19:25:15.134Z,59.88
2019-03-08T19:28:28.031Z,53.33
2019-03-08T19:31:44.360Z,55.95
2019-03-08T19:35:06.982Z,61.28
2019-03-08T19:38:19.703Z,55.80
2019-03-08T19:41:38.002Z,56.75
2019-03-08T19:44:44.015Z,59.00
2019-03-08T19:47:55.384Z,56.02
2019-03-08T19:51:07.137Z,54.27
2019-03-08T19:54:16.640Z,57.98
2019-03-08T19:57:35.281Z,57.30
2019-03-08T20:00:50.988Z,65.87
2019-03-08T20:04:02.399Z,56.58
2019-03-08T20:07:13.553Z,60.88
2019-03-08T20:10:21.761Z,61.48
2019-03-08T20:13:46.885Z,64.42
2019-03-08T20:16:57.992Z,66.15
2019-03-08T20:20:13.808Z,53.30
2019-03-08T20:23:18.884Z,42.73
2019-03-08T20:26:35.724Z,53.90
2019-03-08T20:29:54.255Z,45.73
2019-03-08T20:33:20.323Z,55.63
2019-03-08T20:36:32.922Z,52.40
2019-03-08T20:39:54.805Z,47.75
2019-03-08T20:43:08.227Z,52.20
2019-03-08T20:46:10.257Z,47.67
2019-03-08T20:49:05.109Z,48.75
2019-03-08T20:52:00.175Z,44.98
2019-03-08T20:54:55.679Z,53.05
2019-03-08T20:57:50.821Z,48.35
2019-03-08T21:00:46.575Z,52.45
2019-03-08T21:03:42.140Z,44.75
2019-03-08T21:06:37.110Z,62.70
2019-03-08T21:09:32.451Z,48.17
2019-03-08T21:12:27.581Z,72.92
2019-03-08T21:15:25.713Z,52.83
2019-03-08T21:18:18.772Z,53.87
2019-03-08T21:21:13.938Z,50.58
2019-03-08T21:24:09.863Z,47.15
2019-03-08T21:27:05.240Z,49.48
2019-03-08T21:30:00.924Z,51.90
2019-03-08T21:32:56.971Z,54.18
2019-03-08T21:35:52.200Z,50.73
2019-03-08T21:38:47.354Z,49.33
2019-03-08T21:41:42.182Z,50.58
2019-03-08T21:44:37.315Z,52.78
2019-03-08T21:47:32.867Z,59.20
2019-03-08T21:50:28.238Z,64.72
2019-03-08T21:53:23.269Z,60.92
2019-03-08T21:56:18.722Z,49.18
2019-03-08T21:59:14.144Z,61.73
2019-03-08T22:02:09.667Z,54.30
2019-03-08T22:05:04.702Z,57.67
2019-03-08T22:08:00.777Z,69.00
2019-03-08T22:11:11.559Z,64.53
2019-03-08T22:14:08.376Z,65.55
2019-03-08T22:17:02.992Z,63.33
2019-03-08T22:19:58.739Z,71.53
2019-03-08T22:22:54.167Z,61.53
2019-03-08T22:25:51.087Z,72.80
2019-03-08T22:28:45.875Z,69.17
2019-03-08T22:31:41.308Z,55.65
2019-03-08T22:34:36.475Z,66.75
2019-03-08T22:37:31.490Z,63.05
2019-03-08T22:40:26.145Z,65.05
2019-03-08T22:43:25.610Z,60.35
2019-03-08T22:46:21.340Z,67.58
2019-03-08T22:49:16.650Z,56.88
2019-03-08T22:52:11.628Z,74.77
2019-03-08T22:55:06.429Z,61.63
2019-03-08T22:58:01.612Z,82.35
2019-03-08T23:01:17.562Z,78.30
2019-03-08T23:04:13.235Z,68.33
2019-03-08T23:07:08.199Z,58.48
2019-03-08T23:10:04.459Z,64.35
2019-03-08T23:12:59.628Z,60.60
2019-03-08T23:15:54.320Z,67.67
2019-03-08T23:18:49.444Z,70.00
2019-03-08T23:21:44.416Z,65.72
2019-03-08T23:24:39.404Z,64.87
2019-03-08T23:27:42.248Z,75.90
2019-03-08T23:30:37.256Z,92.55
2019-03-08T23:33:32.610Z,110.50
2019-03-08T23:36:27.542Z,191.57
2019-03-08T23:39:22.348Z,232.70
2019-03-08T23:42:17.561Z,232.62
2019-03-08T23:45:13.824Z,280.07
2019-03-08T23:48:08.980Z,311.70
2019-03-08T23:51:04.145Z,311.20
2019-03-08T23:53:59.563Z,299.60
2019-03-08T23:56:54.470Z,301.60
2019-03-08T23:59:49.394Z,287.48
